Terminal Aerodrome Forecast
Issued by NWS Raleigh/Durham, NC

Home | Current Version | Previous Version | Text Only | Print | Product List | Glossary On
Versions: 1 2 3 4 5 6 7 8 9 10 11 12 13 14 15 16 17 18 19 20 21 22 23 24 25 26 27 28 29 30 31 32 33
000
FTUS42 KRAH 302320
TAFRDU
TAF
KRDU 302320Z 3100/3124 VRB04KT P6SM SCT040 BKN080
     FM310900 00000KT P6SM OVC015
     FM311200 10005KT 3SM -SHRA BR OVC007
     FM311500 13005KT P6SM VCSH OVC012
     FM311800 17007KT P6SM BKN025=

USA.gov is the U.S. government's official web portal to all federal, state and local government web resources and services.